Terminal Aerodrome Forecast
Issued by NWS Mobile, AL

Home | Current Version | Previous Version | Text Only | Print | Product List | Glossary On
Versions: 1 2 3 4 5 6 7 8 9 10 11 12 13 14 15 16 17 18 19 20 21 22 23 24 25 26 27 28
000
FTUS44 KMOB 200524
TAFPNS
TAF
KPNS 200524Z 2006/2106 15008KT P6SM FEW005 BKN080 OVC100
     FM200900 00000KT 3SM BR BKN005
      TEMPO 2009/2013 1/2SM FG VV003
     FM201500 22008KT 3SM BR OVC010
     FM201800 21011KT P6SM SCT020
     FM210300 18005KT 3SM BR OVC007=

USA.gov is the U.S. government's official web portal to all federal, state and local government web resources and services.